sensor_id;sensor_type;location;lat;lon;timestamp;pressure;altitude;pressure_sealevel;temperature
84287;BMP280;74445;55.252;61.092;2024-02-21T00:02:13;137877.13;;;-30.11
84287;BMP280;74445;55.252;61.092;2024-02-21T00:04:39;137851.19;;;-30.22
84287;BMP280;74445;55.252;61.092;2024-02-21T00:07:06;137822.91;;;-30.34
84287;BMP280;74445;55.252;61.092;2024-02-21T00:09:34;137798.13;;;-30.44
84287;BMP280;74445;55.252;61.092;2024-02-21T00:12:00;137769.88;;;-30.56
84287;BMP280;74445;55.252;61.092;2024-02-21T00:14:27;137741.66;;;-30.68
84287;BMP280;74445;55.252;61.092;2024-02-21T00:16:54;137714.53;;;-30.80
84287;BMP280;74445;55.252;61.092;2024-02-21T00:19:20;137699.22;;;-30.86
84287;BMP280;74445;55.252;61.092;2024-02-21T00:21:47;137676.81;;;-30.96
84287;BMP280;74445;55.252;61.092;2024-02-21T00:24:13;137652.09;;;-31.06
84287;BMP280;74445;55.252;61.092;2024-02-21T00:26:41;137633.31;;;-31.14
84287;BMP280;74445;55.252;61.092;2024-02-21T00:29:08;137605.03;;;-31.26
84287;BMP280;74445;55.252;61.092;2024-02-21T00:31:34;137590.91;;;-31.32
84287;BMP280;74445;55.252;61.092;2024-02-21T00:34:01;137576.78;;;-31.38
84287;BMP280;74445;55.252;61.092;2024-02-21T00:36:27;137565.00;;;-31.43
84287;BMP280;74445;55.252;61.092;2024-02-21T00:38:54;137550.88;;;-31.49
84287;BMP280;74445;55.252;61.092;2024-02-21T00:41:20;137546.16;;;-31.51
84287;BMP280;74445;55.252;61.092;2024-02-21T00:43:48;137548.53;;;-31.50
84287;BMP280;74445;55.252;61.092;2024-02-21T00:46:16;137557.94;;;-31.46
84287;BMP280;74445;55.252;61.092;2024-02-21T00:48:42;137563.81;;;-31.43
84287;BMP280;74445;55.252;61.092;2024-02-21T00:51:09;137570.88;;;-31.40
84287;BMP280;74445;55.252;61.092;2024-02-21T00:53:36;137574.44;;;-31.39
84287;BMP280;74445;55.252;61.092;2024-02-21T00:56:05;137574.44;;;-31.39
84287;BMP280;74445;55.252;61.092;2024-02-21T00:58:31;137572.06;;;-31.40
84287;BMP280;74445;55.252;61.092;2024-02-21T01:01:00;137575.59;;;-31.38
84287;BMP280;74445;55.252;61.092;2024-02-21T01:03:26;137568.53;;;-31.41
84287;BMP280;74445;55.252;61.092;2024-02-21T01:05:53;137561.44;;;-31.44
84287;BMP280;74445;55.252;61.092;2024-02-21T01:08:19;137543.81;;;-31.52
84287;BMP280;74445;55.252;61.092;2024-02-21T01:10:46;137529.69;;;-31.58
84287;BMP280;74445;55.252;61.092;2024-02-21T01:13:12;137520.31;;;-31.62
84287;BMP280;74445;55.252;61.092;2024-02-21T01:15:39;137507.34;;;-31.67
84287;BMP280;74445;55.252;61.092;2024-02-21T01:18:07;137510.91;;;-31.66
84287;BMP280;74445;55.252;61.092;2024-02-21T01:20:33;137497.94;;;-31.71
84287;BMP280;74445;55.252;61.092;2024-02-21T01:23:00;137486.16;;;-31.76
84287;BMP280;74445;55.252;61.092;2024-02-21T01:25:26;137482.66;;;-31.78
84287;BMP280;74445;55.252;61.092;2024-02-21T01:27:53;137473.25;;;-31.82
84287;BMP280;74445;55.252;61.092;2024-02-21T01:30:19;137456.75;;;-31.89
84287;BMP280;74445;55.252;61.092;2024-02-21T01:32:46;137442.63;;;-31.95
84287;BMP280;74445;55.252;61.092;2024-02-21T01:35:14;137420.31;;;-32.04
84287;BMP280;74445;55.252;61.092;2024-02-21T01:37:40;137400.31;;;-32.13
84287;BMP280;74445;55.252;61.092;2024-02-21T01:40:08;137387.41;;;-32.18
84287;BMP280;74445;55.252;61.092;2024-02-21T01:42:38;137375.66;;;-32.23
84287;BMP280;74445;55.252;61.092;2024-02-21T01:45:06;137363.88;;;-32.28
84287;BMP280;74445;55.252;61.092;2024-02-21T01:47:32;137363.88;;;-32.28
84287;BMP280;74445;55.252;61.092;2024-02-21T01:49:59;137363.88;;;-32.28
84287;BMP280;74445;55.252;61.092;2024-02-21T01:52:27;137362.69;;;-32.28
84287;BMP280;74445;55.252;61.092;2024-02-21T01:54:53;137356.81;;;-32.31
84287;BMP280;74445;55.252;61.092;2024-02-21T01:57:20;137353.28;;;-32.32
84287;BMP280;74445;55.252;61.092;2024-02-21T01:59:47;137361.53;;;-32.29
84287;BMP280;74445;55.252;61.092;2024-02-21T02:02:13;137379.16;;;-32.22
84287;BMP280;74445;55.252;61.092;2024-02-21T02:04:40;137397.97;;;-32.14
84287;BMP280;74445;55.252;61.092;2024-02-21T02:07:07;137419.09;;;-32.05
84287;BMP280;74445;55.252;61.092;2024-02-21T02:09:35;137428.53;;;-32.01
84287;BMP280;74445;55.252;61.092;2024-02-21T02:12:02;137442.63;;;-31.95
84287;BMP280;74445;55.252;61.092;2024-02-21T02:14:28;136298.00;;;-31.90
84287;BMP280;74445;55.252;61.092;2024-02-21T02:16:55;137460.31;;;-31.87
84287;BMP280;74445;55.252;61.092;2024-02-21T02:19:22;137464.97;;;-31.85
84287;BMP280;74445;55.252;61.092;2024-02-21T02:21:51;137452.06;;;-31.91
84287;BMP280;74445;55.252;61.092;2024-02-21T02:24:24;137446.19;;;-31.93
84287;BMP280;74445;55.252;61.092;2024-02-21T02:26:52;137454.41;;;-31.90
84287;BMP280;74445;55.252;61.092;2024-02-21T02:29:19;137473.25;;;-31.82
84287;BMP280;74445;55.252;61.092;2024-02-21T02:31:45;137481.44;;;-31.78
84287;BMP280;74445;55.252;61.092;2024-02-21T02:34:11;137477.94;;;-31.80
84287;BMP280;74445;55.252;61.092;2024-02-21T02:36:38;137477.94;;;-31.80
84287;BMP280;74445;55.252;61.092;2024-02-21T02:39:04;137481.44;;;-31.78
84287;BMP280;74445;55.252;61.092;2024-02-21T02:41:35;137487.38;;;-31.76
84287;BMP280;74445;55.252;61.092;2024-02-21T02:44:01;137485.00;;;-31.77
84287;BMP280;74445;55.252;61.092;2024-02-21T02:46:27;137489.72;;;-31.75
84287;BMP280;74445;55.252;61.092;2024-02-21T02:48:54;137488.50;;;-31.75
84287;BMP280;74445;55.252;61.092;2024-02-21T02:51:21;137489.72;;;-31.75
84287;BMP280;74445;55.252;61.092;2024-02-21T02:53:47;137485.00;;;-31.77
84287;BMP280;74445;55.252;61.092;2024-02-21T02:56:17;137479.09;;;-31.79
84287;BMP280;74445;55.252;61.092;2024-02-21T02:58:45;137467.34;;;-31.84
84287;BMP280;74445;55.252;61.092;2024-02-21T03:01:12;137454.41;;;-31.90
84287;BMP280;74445;55.252;61.092;2024-02-21T03:03:39;137448.53;;;-31.92
84287;BMP280;74445;55.252;61.092;2024-02-21T03:06:06;137452.06;;;-31.91
84287;BMP280;74445;55.252;61.092;2024-02-21T03:08:32;137463.81;;;-31.86
84287;BMP280;74445;55.252;61.092;2024-02-21T03:11:00;137470.88;;;-31.83
84287;BMP280;74445;55.252;61.092;2024-02-21T03:13:27;137479.09;;;-31.79
84287;BMP280;74445;55.252;61.092;2024-02-21T03:15:55;137490.88;;;-31.74
84287;BMP280;74445;55.252;61.092;2024-02-21T03:18:21;137497.94;;;-31.71
84287;BMP280;74445;55.252;61.092;2024-02-21T03:20:48;137522.69;;;-31.61
84287;BMP280;74445;55.252;61.092;2024-02-21T03:23:14;137549.69;;;-31.49
84287;BMP280;74445;55.252;61.092;2024-02-21T03:25:41;137573.22;;;-31.39
84287;BMP280;74445;55.252;61.092;2024-02-21T03:28:08;137603.84;;;-31.26
84287;BMP280;74445;55.252;61.092;2024-02-21T03:30:34;137648.59;;;-31.08
84287;BMP280;74445;55.252;61.092;2024-02-21T03:33:03;137701.59;;;-30.85
84287;BMP280;74445;55.252;61.092;2024-02-21T03:35:29;137768.72;;;-30.57
84287;BMP280;74445;55.252;61.092;2024-02-21T03:37:56;137832.34;;;-30.30
84287;BMP280;74445;55.252;61.092;2024-02-21T03:40:22;137890.09;;;-30.05
84287;BMP280;74445;55.252;61.092;2024-02-21T03:42:49;137954.94;;;-29.78
84287;BMP280;74445;55.252;61.092;2024-02-21T03:45:15;138049.25;;;-29.38
84287;BMP280;74445;55.252;61.092;2024-02-21T03:47:42;138201.47;;;-28.74
84287;BMP280;74445;55.252;61.092;2024-02-21T03:50:10;138445.97;;;-27.71
84287;BMP280;74445;55.252;61.092;2024-02-21T03:52:36;138710.81;;;-26.59
84287;BMP280;74445;55.252;61.092;2024-02-21T03:55:03;139009.19;;;-25.34
84287;BMP280;74445;55.252;61.092;2024-02-21T03:57:29;139360.13;;;-23.87
84287;BMP280;74445;55.252;61.092;2024-02-21T03:59:56;139748.47;;;-22.24
84287;BMP280;74445;55.252;61.092;2024-02-21T04:02:22;140225.63;;;-20.24
84287;BMP280;74445;55.252;61.092;2024-02-21T04:04:49;140702.56;;;-18.25
84287;BMP280;74445;55.252;61.092;2024-02-21T04:07:17;141085.97;;;-16.65
84287;BMP280;74445;55.252;61.092;2024-02-21T04:09:44;141349.13;;;-15.56
84287;BMP280;74445;55.252;61.092;2024-02-21T04:12:11;141557.41;;;-14.69
84287;BMP280;74445;55.252;61.092;2024-02-21T04:14:37;141873.84;;;-13.38
84287;BMP280;74445;55.252;61.092;2024-02-21T04:17:05;142267.50;;;-11.74
84287;BMP280;74445;55.252;61.092;2024-02-21T04:19:33;142634.13;;;-10.22
84287;BMP280;74445;55.252;61.092;2024-02-21T04:22:00;142974.75;;;-8.81
84287;BMP280;74445;55.252;61.092;2024-02-21T04:24:28;143253.09;;;-7.66
84287;BMP280;74445;55.252;61.092;2024-02-21T04:26:55;143498.00;;;-6.65
84287;BMP280;74445;55.252;61.092;2024-02-21T04:29:21;143744.31;;;-5.64
84287;BMP280;74445;55.252;61.092;2024-02-21T04:31:48;143986.00;;;-4.64
84287;BMP280;74445;55.252;61.092;2024-02-21T04:34:14;144223.09;;;-3.67
84287;BMP280;74445;55.252;61.092;2024-02-21T04:36:41;144430.09;;;-2.81
84287;BMP280;74445;55.252;61.092;2024-02-21T04:39:09;144660.31;;;-1.87
84287;BMP280;74445;55.252;61.092;2024-02-21T04:41:37;144904.03;;;-0.87
84287;BMP280;74445;55.252;61.092;2024-02-21T04:44:04;145045.97;;;-0.28
84287;BMP280;74445;55.252;61.092;2024-02-21T04:46:30;145154.00;;;0.16
84287;BMP280;74445;55.252;61.092;2024-02-21T04:48:57;145217.13;;;0.42
84287;BMP280;74445;55.252;61.092;2024-02-21T04:51:24;145190.44;;;0.31
84287;BMP280;74445;55.252;61.092;2024-02-21T04:53:50;145073.91;;;-0.17
84287;BMP280;74445;55.252;61.092;2024-02-21T04:56:17;144933.16;;;-0.75
84287;BMP280;74445;55.252;61.092;2024-02-21T04:58:45;144895.50;;;-0.90
84287;BMP280;74445;55.252;61.092;2024-02-21T05:01:12;144782.75;;;-1.36
84287;BMP280;74445;55.252;61.092;2024-02-21T05:03:39;144848.22;;;-1.10
84287;BMP280;74445;55.252;61.092;2024-02-21T05:06:05;144954.97;;;-0.66
84287;BMP280;74445;55.252;61.092;2024-02-21T05:08:31;145093.34;;;-0.09
84287;BMP280;74445;55.252;61.092;2024-02-21T05:10:58;145332.56;;;0.89
84287;BMP280;74445;55.252;61.092;2024-02-21T05:13:25;145511.19;;;1.62
84287;BMP280;74445;55.252;61.092;2024-02-21T05:15:53;145727.66;;;2.51
84287;BMP280;74445;55.252;61.092;2024-02-21T05:18:20;145833.50;;;2.94
84287;BMP280;74445;55.252;61.092;2024-02-21T05:20:46;145939.34;;;3.38
84287;BMP280;74445;55.252;61.092;2024-02-21T05:23:13;145994.16;;;3.60
84287;BMP280;74445;55.252;61.092;2024-02-21T05:25:39;146157.31;;;4.27
84287;BMP280;74445;55.252;61.092;2024-02-21T05:28:06;146295.03;;;4.83
84287;BMP280;74445;55.252;61.092;2024-02-21T05:30:33;146475.44;;;5.57
84287;BMP280;74445;55.252;61.092;2024-02-21T05:33:04;146634.06;;;6.22
84287;BMP280;74445;55.252;61.092;2024-02-21T05:35:31;146640.19;;;6.24
84287;BMP280;74445;55.252;61.092;2024-02-21T05:37:57;146756.09;;;6.71
84287;BMP280;74445;55.252;61.092;2024-02-21T05:40:25;146901.34;;;7.31
84287;BMP280;74445;55.252;61.092;2024-02-21T05:42:52;146924.59;;;7.40
84287;BMP280;74445;55.252;61.092;2024-02-21T05:45:18;146988.06;;;7.66
84287;BMP280;74445;55.252;61.092;2024-02-21T05:47:45;147061.34;;;7.96
84287;BMP280;74445;55.252;61.092;2024-02-21T05:50:13;147233.72;;;8.66
84287;BMP280;74445;55.252;61.092;2024-02-21T05:52:40;147216.63;;;8.59
84287;BMP280;74445;55.252;61.092;2024-02-21T05:55:07;147189.72;;;8.48
84287;BMP280;74445;55.252;61.092;2024-02-21T05:57:35;147144.50;;;8.30
84287;BMP280;74445;55.252;61.092;2024-02-21T06:00:04;147286.28;;;8.87
84287;BMP280;74445;55.252;61.092;2024-02-21T06:02:31;147238.63;;;8.68
84287;BMP280;74445;55.252;61.092;2024-02-21T06:04:57;147178.72;;;8.44
84287;BMP280;74445;55.252;61.092;2024-02-21T06:07:25;147182.41;;;8.45
84287;BMP280;74445;55.252;61.092;2024-02-21T06:09:52;147014.94;;;7.77
84287;BMP280;74445;55.252;61.092;2024-02-21T06:12:19;147012.47;;;7.76
84287;BMP280;74445;55.252;61.092;2024-02-21T06:14:45;147110.22;;;8.16
84287;BMP280;74445;55.252;61.092;2024-02-21T06:17:12;147106.59;;;8.14
84287;BMP280;74445;55.252;61.092;2024-02-21T06:19:40;147115.16;;;8.18
84287;BMP280;74445;55.252;61.092;2024-02-21T06:22:07;147036.91;;;7.86
84287;BMP280;74445;55.252;61.092;2024-02-21T06:24:35;147143.28;;;8.29
84287;BMP280;74445;55.252;61.092;2024-02-21T06:27:03;147040.59;;;7.87
84287;BMP280;74445;55.252;61.092;2024-02-21T06:29:29;147019.81;;;7.79
84287;BMP280;74445;55.252;61.092;2024-02-21T06:31:55;146978.31;;;7.62
84287;BMP280;74445;55.252;61.092;2024-02-21T06:34:22;146912.38;;;7.35
84287;BMP280;74445;55.252;61.092;2024-02-21T06:36:50;146902.59;;;7.31
84287;BMP280;74445;55.252;61.092;2024-02-21T06:39:17;146903.81;;;7.32
84287;BMP280;74445;55.252;61.092;2024-02-21T06:41:45;146909.94;;;7.34
84287;BMP280;74445;55.252;61.092;2024-02-21T06:44:11;146795.16;;;6.87
84287;BMP280;74445;55.252;61.092;2024-02-21T06:46:38;146730.44;;;6.61
84287;BMP280;74445;55.252;61.092;2024-02-21T06:49:04;146604.78;;;6.10
84287;BMP280;74445;55.252;61.092;2024-02-21T06:51:31;146548.66;;;5.87
84287;BMP280;74445;55.252;61.092;2024-02-21T06:53:58;146645.06;;;6.26
84287;BMP280;74445;55.252;61.092;2024-02-21T06:56:24;146646.25;;;6.27
84287;BMP280;74445;55.252;61.092;2024-02-21T06:58:56;146626.75;;;6.19
84287;BMP280;74445;55.252;61.092;2024-02-21T07:01:23;146632.88;;;6.21
84287;BMP280;74445;55.252;61.092;2024-02-21T07:03:49;146606.03;;;6.10
84287;BMP280;74445;55.252;61.092;2024-02-21T07:06:16;146614.53;;;6.14
84287;BMP280;74445;55.252;61.092;2024-02-21T07:08:43;146607.22;;;6.11
84287;BMP280;74445;55.252;61.092;2024-02-21T07:11:09;146575.50;;;5.98
84287;BMP280;74445;55.252;61.092;2024-02-21T07:13:36;146606.03;;;6.10
84287;BMP280;74445;55.252;61.092;2024-02-21T07:16:05;146621.84;;;6.17
84287;BMP280;74445;55.252;61.092;2024-02-21T07:18:31;146701.16;;;6.49
84287;BMP280;74445;55.252;61.092;2024-02-21T07:20:58;146659.72;;;6.32
84287;BMP280;74445;55.252;61.092;2024-02-21T07:23:25;146736.56;;;6.63
84287;BMP280;74445;55.252;61.092;2024-02-21T07:25:52;146671.91;;;6.37
84287;BMP280;74445;55.252;61.092;2024-02-21T07:28:18;146662.16;;;6.33
84287;BMP280;74445;55.252;61.092;2024-02-21T07:30:45;146660.91;;;6.32
84287;BMP280;74445;55.252;61.092;2024-02-21T07:33:13;146667.03;;;6.35
84287;BMP280;74445;55.252;61.092;2024-02-21T07:35:40;146632.88;;;6.21
84287;BMP280;74445;55.252;61.092;2024-02-21T07:38:11;146555.97;;;5.90
84287;BMP280;74445;55.252;61.092;2024-02-21T07:40:38;146515.72;;;5.73
84287;BMP280;74445;55.252;61.092;2024-02-21T07:43:05;146471.81;;;5.55
84287;BMP280;74445;55.252;61.092;2024-02-21T07:45:31;146368.13;;;5.13
84287;BMP280;74445;55.252;61.092;2024-02-21T07:47:58;146373.00;;;5.15
84287;BMP280;74445;55.252;61.092;2024-02-21T07:50:26;146267.00;;;4.72
84287;BMP280;74445;55.252;61.092;2024-02-21T07:52:53;146148.81;;;4.23
84287;BMP280;74445;55.252;61.092;2024-02-21T07:55:21;146009.97;;;3.67
84287;BMP280;74445;55.252;61.092;2024-02-21T07:57:47;145923.56;;;3.31
84287;BMP280;74445;55.252;61.092;2024-02-21T08:00:14;145860.25;;;3.05
84287;BMP280;74445;55.252;61.092;2024-02-21T08:02:48;145687.47;;;2.35
84287;BMP280;74445;55.252;61.092;2024-02-21T08:05:15;145450.41;;;1.37
84287;BMP280;74445;55.252;61.092;2024-02-21T08:07:43;145144.28;;;0.12
84287;BMP280;74445;55.252;61.092;2024-02-21T08:10:09;144887.03;;;-0.94
84287;BMP280;74445;55.252;61.092;2024-02-21T08:12:36;144735.47;;;-1.56
84287;BMP280;74445;55.252;61.092;2024-02-21T08:15:04;144472.53;;;-2.64
84287;BMP280;74445;55.252;61.092;2024-02-21T08:17:32;144300.56;;;-3.35
84287;BMP280;74445;55.252;61.092;2024-02-21T08:19:58;144186.78;;;-3.81
84287;BMP280;74445;55.252;61.092;2024-02-21T08:22:25;144075.50;;;-4.27
84287;BMP280;74445;55.252;61.092;2024-02-21T08:24:53;144057.38;;;-4.35
84287;BMP280;74445;55.252;61.092;2024-02-21T08:27:19;143920.69;;;-4.91
84287;BMP280;74445;55.252;61.092;2024-02-21T08:29:46;143929.19;;;-4.88
84287;BMP280;74445;55.252;61.092;2024-02-21T08:32:13;143898.94;;;-5.00
84287;BMP280;74445;55.252;61.092;2024-02-21T08:34:39;143865.16;;;-5.14
84287;BMP280;74445;55.252;61.092;2024-02-21T08:37:06;143839.75;;;-5.24
84287;BMP280;74445;55.252;61.092;2024-02-21T08:39:33;143799.88;;;-5.41
84287;BMP280;74445;55.252;61.092;2024-02-21T08:42:01;143791.41;;;-5.44
84287;BMP280;74445;55.252;61.092;2024-02-21T08:44:28;143734.63;;;-5.68
84287;BMP280;74445;55.252;61.092;2024-02-21T08:46:55;143657.38;;;-6.00
84287;BMP280;74445;55.252;61.092;2024-02-21T08:49:21;143592.16;;;-6.26
84287;BMP280;74445;55.252;61.092;2024-02-21T08:51:48;143553.53;;;-6.42
84287;BMP280;74445;55.252;61.092;2024-02-21T08:54:14;143525.78;;;-6.54
84287;BMP280;74445;55.252;61.092;2024-02-21T08:56:41;143469.03;;;-6.77
84287;BMP280;74445;55.252;61.092;2024-02-21T08:59:10;143435.25;;;-6.91
84287;BMP280;74445;55.252;61.092;2024-02-21T09:01:36;143359.25;;;-7.23
84287;BMP280;74445;55.252;61.092;2024-02-21T09:04:06;143297.72;;;-7.48
84287;BMP280;74445;55.252;61.092;2024-02-21T09:06:33;143268.75;;;-7.60
84287;BMP280;74445;55.252;61.092;2024-02-21T09:09:04;143227.81;;;-7.77
84287;BMP280;74445;55.252;61.092;2024-02-21T09:11:30;143216.94;;;-7.81
84287;BMP280;74445;55.252;61.092;2024-02-21T09:13:57;143188.00;;;-7.93
84287;BMP280;74445;55.252;61.092;2024-02-21T09:16:25;143106.06;;;-8.27
84287;BMP280;74445;55.252;61.092;2024-02-21T09:18:52;143054.28;;;-8.49
84287;BMP280;74445;55.252;61.092;2024-02-21T09:21:20;143016.91;;;-8.64
84287;BMP280;74445;55.252;61.092;2024-02-21T09:23:47;142997.63;;;-8.72
84287;BMP280;74445;55.252;61.092;2024-02-21T09:26:13;142980.75;;;-8.79
84287;BMP280;74445;55.252;61.092;2024-02-21T09:28:42;142965.13;;;-8.85
84287;BMP280;74445;55.252;61.092;2024-02-21T09:31:09;142930.19;;;-9.00
84287;BMP280;74445;55.252;61.092;2024-02-21T09:33:38;142908.53;;;-9.09
84287;BMP280;74445;55.252;61.092;2024-02-21T09:36:05;142850.72;;;-9.33
84287;BMP280;74445;55.252;61.092;2024-02-21T09:38:32;142827.81;;;-9.42
84287;BMP280;74445;55.252;61.092;2024-02-21T09:41:00;142779.66;;;-9.62
84287;BMP280;74445;55.252;61.092;2024-02-21T09:43:29;142706.25;;;-9.93
84287;BMP280;74445;55.252;61.092;2024-02-21T09:45:56;142664.16;;;-10.10
84287;BMP280;74445;55.252;61.092;2024-02-21T09:48:30;142612.47;;;-10.31
84287;BMP280;74445;55.252;61.092;2024-02-21T09:51:05;142576.38;;;-10.46
84287;BMP280;74445;55.252;61.092;2024-02-21T09:53:32;142537.88;;;-10.62
84287;BMP280;74445;55.252;61.092;2024-02-21T09:56:00;142440.50;;;-11.03
84287;BMP280;74445;55.252;61.092;2024-02-21T09:58:27;142340.72;;;-11.44
84287;BMP280;74445;55.252;61.092;2024-02-21T10:00:54;142296.34;;;-11.62
84287;BMP280;74445;55.252;61.092;2024-02-21T10:03:20;142251.91;;;-11.81
84287;BMP280;74445;55.252;61.092;2024-02-21T10:05:48;142195.41;;;-12.04
84287;BMP280;74445;55.252;61.092;2024-02-21T10:08:20;142153.41;;;-12.22
84287;BMP280;74445;55.252;61.092;2024-02-21T10:10:47;142081.38;;;-12.51
84287;BMP280;74445;55.252;61.092;2024-02-21T10:13:25;142050.16;;;-12.64
84287;BMP280;74445;55.252;61.092;2024-02-21T10:16:01;142000.97;;;-12.85
84287;BMP280;74445;55.252;61.092;2024-02-21T10:18:31;141956.59;;;-13.03
84287;BMP280;74445;55.252;61.092;2024-02-21T10:21:02;141918.19;;;-13.19
84287;BMP280;74445;55.252;61.092;2024-02-21T10:23:41;141872.59;;;-13.38
84287;BMP280;74445;55.252;61.092;2024-02-21T10:26:08;141794.69;;;-13.70
84287;BMP280;74445;55.252;61.092;2024-02-21T10:28:35;141792.28;;;-13.71
84287;BMP280;74445;55.252;61.092;2024-02-21T10:31:01;141795.84;;;-13.70
84287;BMP280;74445;55.252;61.092;2024-02-21T10:33:28;141791.06;;;-13.72
84287;BMP280;74445;55.252;61.092;2024-02-21T10:36:07;141786.25;;;-13.74
84287;BMP280;74445;55.252;61.092;2024-02-21T10:38:36;141768.28;;;-13.81
84287;BMP280;74445;55.252;61.092;2024-02-21T10:41:04;141746.72;;;-13.90
84287;BMP280;74445;55.252;61.092;2024-02-21T10:43:37;141699.97;;;-14.10
84287;BMP280;74445;55.252;61.092;2024-02-21T10:46:05;141685.66;;;-14.16
84287;BMP280;74445;55.252;61.092;2024-02-21T10:48:40;141664.06;;;-14.25
84287;BMP280;74445;55.252;61.092;2024-02-21T10:51:15;141626.91;;;-14.40
84287;BMP280;74445;55.252;61.092;2024-02-21T10:54:01;141628.13;;;-14.40
84287;BMP280;74445;55.252;61.092;2024-02-21T10:56:29;141616.13;;;-14.45
84287;BMP280;74445;55.252;61.092;2024-02-21T10:58:58;141582.59;;;-14.59
84287;BMP280;74445;55.252;61.092;2024-02-21T11:01:27;141555.00;;;-14.70
84287;BMP280;74445;55.252;61.092;2024-02-21T11:03:56;141531.03;;;-14.80
84287;BMP280;74445;55.252;61.092;2024-02-21T11:06:26;141491.53;;;-14.96
84287;BMP280;74445;55.252;61.092;2024-02-21T11:09:07;141471.16;;;-15.05
84287;BMP280;74445;55.252;61.092;2024-02-21T11:11:34;141459.19;;;-15.10
84287;BMP280;74445;55.252;61.092;2024-02-21T11:14:08;141425.66;;;-15.24
84287;BMP280;74445;55.252;61.092;2024-02-21T11:16:36;141402.97;;;-15.33
84287;BMP280;74445;55.252;61.092;2024-02-21T11:19:05;141375.47;;;-15.45
84287;BMP280;74445;55.252;61.092;2024-02-21T11:21:34;141329.97;;;-15.64
84287;BMP280;74445;55.252;61.092;2024-02-21T11:24:01;141298.84;;;-15.77
84287;BMP280;74445;55.252;61.092;2024-02-21T11:26:30;141273.69;;;-15.87
84287;BMP280;74445;55.252;61.092;2024-02-21T11:28:58;141234.22;;;-16.03
84287;BMP280;74445;55.252;61.092;2024-02-21T11:31:26;141193.56;;;-16.20
84287;BMP280;74445;55.252;61.092;2024-02-21T11:33:55;141157.72;;;-16.35
84287;BMP280;74445;55.252;61.092;2024-02-21T11:36:25;141107.50;;;-16.56
84287;BMP280;74445;55.252;61.092;2024-02-21T11:38:53;141094.34;;;-16.62
84287;BMP280;74445;55.252;61.092;2024-02-21T11:41:21;141074.00;;;-16.70
84287;BMP280;74445;55.252;61.092;2024-02-21T11:43:50;141063.28;;;-16.75
84287;BMP280;74445;55.252;61.092;2024-02-21T11:46:17;141050.09;;;-16.80
84287;BMP280;74445;55.252;61.092;2024-02-21T11:48:45;141026.19;;;-16.90
84287;BMP280;74445;55.252;61.092;2024-02-21T11:51:25;141013.06;;;-16.96
84287;BMP280;74445;55.252;61.092;2024-02-21T11:53:52;140990.31;;;-17.05
84287;BMP280;74445;55.252;61.092;2024-02-21T11:56:38;140962.84;;;-17.16
84287;BMP280;74445;55.252;61.092;2024-02-21T11:59:06;140942.50;;;-17.25
84287;BMP280;74445;55.252;61.092;2024-02-21T12:01:33;140916.28;;;-17.36
84287;BMP280;74445;55.252;61.092;2024-02-21T12:03:59;140890.00;;;-17.47
84287;BMP280;74445;55.252;61.092;2024-02-21T12:06:26;140855.38;;;-17.61
84287;BMP280;74445;55.252;61.092;2024-02-21T12:08:58;140824.31;;;-17.74
84287;BMP280;74445;55.252;61.092;2024-02-21T12:11:24;140798.03;;;-17.85
84287;BMP280;74445;55.252;61.092;2024-02-21T12:14:00;140768.19;;;-17.98
84287;BMP280;74445;55.252;61.092;2024-02-21T12:16:31;140730.00;;;-18.14
84287;BMP280;74445;55.252;61.092;2024-02-21T12:18:59;140704.88;;;-18.24
84287;BMP280;74445;55.252;61.092;2024-02-21T12:21:26;140676.28;;;-18.36
84287;BMP280;74445;55.252;61.092;2024-02-21T12:23:54;140646.47;;;-18.48
84287;BMP280;74445;55.252;61.092;2024-02-21T12:26:21;140614.22;;;-18.62
84287;BMP280;74445;55.252;61.092;2024-02-21T12:28:48;140582.03;;;-18.75
84287;BMP280;74445;55.252;61.092;2024-02-21T12:31:14;140554.56;;;-18.87
84287;BMP280;74445;55.252;61.092;2024-02-21T12:33:44;140519.97;;;-19.01
84287;BMP280;74445;55.252;61.092;2024-02-21T12:36:10;140494.91;;;-19.12
84287;BMP280;74445;55.252;61.092;2024-02-21T12:38:37;140460.38;;;-19.26
84287;BMP280;74445;55.252;61.092;2024-02-21T12:41:04;140429.38;;;-19.39
84287;BMP280;74445;55.252;61.092;2024-02-21T12:43:30;140396.00;;;-19.53
84287;BMP280;74445;55.252;61.092;2024-02-21T12:45:58;140368.59;;;-19.64
84287;BMP280;74445;55.252;61.092;2024-02-21T12:48:24;140340.00;;;-19.76
84287;BMP280;74445;55.252;61.092;2024-02-21T12:50:52;140300.63;;;-19.93
84287;BMP280;74445;55.252;61.092;2024-02-21T12:53:19;140257.78;;;-20.11
84287;BMP280;74445;55.252;61.092;2024-02-21T12:55:49;140219.66;;;-20.27
84287;BMP280;74445;55.252;61.092;2024-02-21T12:58:15;140174.44;;;-20.46
84287;BMP280;74445;55.252;61.092;2024-02-21T13:00:42;140137.47;;;-20.61
84287;BMP280;74445;55.252;61.092;2024-02-21T13:03:09;140101.75;;;-20.76
84287;BMP280;74445;55.252;61.092;2024-02-21T13:05:38;140056.56;;;-20.95
84287;BMP280;74445;55.252;61.092;2024-02-21T13:08:08;140024.44;;;-21.08
84287;BMP280;74445;55.252;61.092;2024-02-21T13:10:35;139976.81;;;-21.28
84287;BMP280;74445;55.252;61.092;2024-02-21T13:13:01;139939.91;;;-21.44
84287;BMP280;74445;55.252;61.092;2024-02-21T13:15:28;139894.72;;;-21.63
84287;BMP280;74445;55.252;61.092;2024-02-21T13:17:55;139856.72;;;-21.79
84287;BMP280;74445;55.252;61.092;2024-02-21T13:20:21;139822.19;;;-21.93
84287;BMP280;74445;55.252;61.092;2024-02-21T13:22:48;139778.22;;;-22.11
84287;BMP280;74445;55.252;61.092;2024-02-21T13:25:17;139736.56;;;-22.29
84287;BMP280;74445;55.252;61.092;2024-02-21T13:27:45;139696.19;;;-22.46
84287;BMP280;74445;55.252;61.092;2024-02-21T13:30:12;139666.50;;;-22.58
84287;BMP280;74445;55.252;61.092;2024-02-21T13:32:39;139627.25;;;-22.75
84287;BMP280;74445;55.252;61.092;2024-02-21T13:35:05;139598.72;;;-22.87
84287;BMP280;74445;55.252;61.092;2024-02-21T13:37:32;139563.13;;;-23.02
84287;BMP280;74445;55.252;61.092;2024-02-21T13:39:59;139521.59;;;-23.19
84287;BMP280;74445;55.252;61.092;2024-02-21T13:42:26;139485.94;;;-23.34